createdAt,value
2023-01-20T00:00:44.849Z,0.00
2023-01-20T00:01:44.900Z,0.00
2023-01-20T00:02:44.936Z,0.00
2023-01-20T00:03:44.889Z,0.00
2023-01-20T00:06:44.913Z,0.00
2023-01-20T00:07:44.866Z,0.00
2023-01-20T00:08:44.820Z,0.00
2023-01-20T00:10:44.956Z,0.00
2023-01-20T00:11:44.878Z,0.00
2023-01-20T00:12:44.828Z,0.00
2023-01-20T00:13:44.857Z,0.00
2023-01-20T00:15:45.022Z,0.00
2023-01-20T00:16:44.917Z,0.00
2023-01-20T00:17:44.881Z,0.00
2023-01-20T00:18:44.943Z,0.00
2023-01-20T00:20:44.893Z,0.00
2023-01-20T00:21:44.902Z,0.00
2023-01-20T00:22:44.719Z,0.00
2023-01-20T00:23:44.928Z,0.00
2023-01-20T00:25:44.920Z,0.00
2023-01-20T00:26:44.743Z,0.00
2023-01-20T00:27:44.845Z,0.00
2023-01-20T00:29:44.731Z,0.00
2023-01-20T00:30:44.920Z,0.00
2023-01-20T00:31:44.930Z,0.00
2023-01-20T00:32:44.773Z,0.00
2023-01-20T00:34:44.840Z,0.00
2023-01-20T00:35:44.837Z,0.00
2023-01-20T00:36:44.978Z,0.00
2023-01-20T00:37:44.848Z,0.00
2023-01-20T00:39:44.861Z,0.00
2023-01-20T00:40:45.027Z,0.00
2023-01-20T00:41:44.870Z,0.00
2023-01-20T00:42:44.757Z,0.00
2023-01-20T00:44:44.914Z,0.00
2023-01-20T00:45:45.005Z,0.00
2023-01-20T00:46:44.870Z,0.00
2023-01-20T00:47:44.898Z,0.00
2023-01-20T00:49:44.743Z,0.00
2023-01-20T00:50:45.038Z,0.00
2023-01-20T00:51:44.909Z,0.00
2023-01-20T00:52:44.905Z,0.00
2023-01-20T00:54:44.776Z,0.00
2023-01-20T00:55:44.872Z,0.00
2023-01-20T00:56:44.903Z,0.00
2023-01-20T00:57:44.911Z,0.00
2023-01-20T00:59:44.916Z,0.00
2023-01-20T01:00:44.949Z,0.00
2023-01-20T01:01:45.009Z,0.00
2023-01-20T01:02:44.887Z,0.00
2023-01-20T01:04:44.982Z,0.00
2023-01-20T01:05:44.906Z,0.00
2023-01-20T01:06:44.920Z,0.00
2023-01-20T01:07:45.007Z,0.00
2023-01-20T01:09:44.937Z,0.00
2023-01-20T01:10:44.883Z,0.00
2023-01-20T01:11:44.915Z,0.00
2023-01-20T01:12:44.925Z,0.00
2023-01-20T01:14:44.771Z,0.00
2023-01-20T01:15:44.930Z,0.00
2023-01-20T01:16:44.818Z,0.00
2023-01-20T01:17:45.078Z,0.00
2023-01-20T01:19:44.963Z,0.00
2023-01-20T01:20:44.948Z,0.00
2023-01-20T01:21:44.954Z,0.00
2023-01-20T01:22:44.911Z,0.00
2023-01-20T01:24:45.008Z,0.00
2023-01-20T01:25:44.860Z,0.00
2023-01-20T01:26:44.815Z,0.00
2023-01-20T01:27:44.918Z,0.00
2023-01-20T01:29:44.826Z,0.00
2023-01-20T01:30:44.963Z,0.00
2023-01-20T01:31:44.950Z,0.00
2023-01-20T01:32:44.951Z,0.00
2023-01-20T01:34:44.932Z,0.00
2023-01-20T01:35:44.962Z,0.00
2023-01-20T01:36:44.965Z,0.00
2023-01-20T01:37:45.058Z,0.00
2023-01-20T01:39:44.853Z,0.00
2023-01-20T01:40:44.895Z,0.00
2023-01-20T01:41:45.019Z,0.00
2023-01-20T01:42:45.006Z,0.00
2023-01-20T01:44:44.989Z,0.00
2023-01-20T01:45:45.002Z,0.00
2023-01-20T01:46:44.950Z,0.00
2023-01-20T01:47:44.880Z,0.00
2023-01-20T01:50:44.964Z,0.00
2023-01-20T01:51:44.999Z,0.00
2023-01-20T01:52:44.939Z,0.00
2023-01-20T01:53:44.981Z,0.00
2023-01-20T01:56:45.064Z,0.00
2023-01-20T01:57:44.961Z,0.00
2023-01-20T01:58:44.819Z,0.00
2023-01-20T01:59:44.985Z,0.00
2023-01-20T02:01:45.226Z,0.00
2023-01-20T02:02:45.089Z,0.00
2023-01-20T02:03:44.995Z,0.00
2023-01-20T02:04:44.913Z,0.00
2023-01-20T02:06:45.021Z,0.00
2023-01-20T02:07:44.828Z,0.00
2023-01-20T02:08:44.981Z,0.00
2023-01-20T02:09:44.970Z,0.00
2023-01-20T02:11:45.034Z,0.00
2023-01-20T02:12:44.806Z,0.00
2023-01-20T02:13:44.833Z,0.00
2023-01-20T02:14:44.846Z,0.00
2023-01-20T02:16:45.033Z,0.00
2023-01-20T02:17:44.987Z,0.00
2023-01-20T02:18:44.963Z,0.00
2023-01-20T02:19:44.955Z,0.00
2023-01-20T02:21:45.039Z,0.00
2023-01-20T02:22:44.820Z,0.00
2023-01-20T02:23:44.835Z,0.00
2023-01-20T02:24:44.892Z,0.00
2023-01-20T02:27:45.058Z,0.00
2023-01-20T02:28:45.263Z,0.00
2023-01-20T02:29:45.092Z,0.00
2023-01-20T02:30:45.317Z,0.00
2023-01-20T02:33:45.137Z,0.00
2023-01-20T02:34:45.265Z,0.00
2023-01-20T02:35:45.273Z,0.00
2023-01-20T02:36:45.468Z,0.00
2023-01-20T02:39:45.078Z,0.00
2023-01-20T02:40:45.297Z,0.00
2023-01-20T02:41:45.123Z,0.00
2023-01-20T02:42:45.317Z,0.00
2023-01-20T02:45:45.337Z,0.00
2023-01-20T02:46:45.075Z,0.00
2023-01-20T02:47:51.673Z,0.00
2023-01-20T02:48:45.257Z,0.00
2023-01-20T02:51:45.281Z,0.00
2023-01-20T02:52:45.286Z,0.00
2023-01-20T02:53:45.288Z,0.00
2023-01-20T02:56:45.296Z,0.00
2023-01-20T02:57:45.285Z,0.00
2023-01-20T02:58:45.257Z,0.00
2023-01-20T03:00:45.302Z,0.00
2023-01-20T03:01:45.384Z,0.00
2023-01-20T03:02:45.299Z,0.00
2023-01-20T03:03:45.405Z,0.00
2023-01-20T03:05:45.492Z,0.00
2023-01-20T03:06:45.140Z,0.00
2023-01-20T03:07:45.286Z,0.00
2023-01-20T03:08:45.303Z,0.00
2023-01-20T03:11:45.307Z,0.00
2023-01-20T03:12:45.311Z,0.00
2023-01-20T03:13:45.175Z,0.00
2023-01-20T03:14:45.304Z,0.00
2023-01-20T03:16:45.132Z,0.00
2023-01-20T03:17:45.328Z,0.00
2023-01-20T03:18:45.327Z,0.00
2023-01-20T03:19:45.139Z,0.00
2023-01-20T03:22:45.093Z,0.00
2023-01-20T03:23:45.320Z,0.00
2023-01-20T03:24:45.107Z,0.00
2023-01-20T03:25:45.338Z,0.00
2023-01-20T03:27:45.286Z,0.00
2023-01-20T03:28:45.315Z,0.00
2023-01-20T03:29:45.338Z,0.00
2023-01-20T03:30:45.405Z,0.00
2023-01-20T03:32:45.321Z,0.00
2023-01-20T03:33:45.353Z,0.00
2023-01-20T03:34:45.327Z,0.00
2023-01-20T03:35:45.139Z,0.00
2023-01-20T03:37:45.285Z,0.00
2023-01-20T03:39:45.326Z,0.00
2023-01-20T03:40:45.322Z,0.00
2023-01-20T03:41:45.337Z,0.00
2023-01-20T03:42:45.362Z,0.00
2023-01-20T03:44:45.317Z,0.00
2023-01-20T03:45:45.367Z,0.00
2023-01-20T03:46:45.308Z,0.00
2023-01-20T03:47:45.310Z,0.00
2023-01-20T03:49:45.368Z,0.00
2023-01-20T03:50:45.350Z,0.00
2023-01-20T03:51:45.331Z,0.00
2023-01-20T03:52:47.617Z,0.00
2023-01-20T03:55:45.330Z,0.00
2023-01-20T03:56:45.335Z,0.00
2023-01-20T03:57:45.356Z,0.00
2023-01-20T04:00:45.358Z,0.00
2023-01-20T04:01:45.440Z,0.00
2023-01-20T04:02:45.338Z,0.00
2023-01-20T04:03:45.238Z,0.00
2023-01-20T04:06:45.365Z,0.00
2023-01-20T04:07:45.326Z,0.00
2023-01-20T04:08:45.349Z,0.00
2023-01-20T04:09:45.330Z,0.00
2023-01-20T04:11:45.380Z,0.00
2023-01-20T04:12:45.348Z,0.00
2023-01-20T04:13:45.233Z,0.00
2023-01-20T04:14:45.294Z,0.00
2023-01-20T04:16:45.325Z,0.00
2023-01-20T04:17:45.353Z,0.00
2023-01-20T04:18:45.353Z,0.00
2023-01-20T04:19:45.353Z,0.00
2023-01-20T04:22:45.378Z,0.00
2023-01-20T04:23:45.353Z,0.00
2023-01-20T04:24:45.350Z,0.00
2023-01-20T04:26:45.165Z,0.00
2023-01-20T04:27:45.367Z,0.00
2023-01-20T04:28:45.378Z,0.00
2023-01-20T04:29:45.145Z,0.00
2023-01-20T04:32:45.212Z,0.00
2023-01-20T04:33:45.388Z,0.00
2023-01-20T04:34:45.186Z,0.00
2023-01-20T04:36:45.416Z,0.00
2023-01-20T04:37:45.345Z,0.00
2023-01-20T04:38:45.166Z,0.00
2023-01-20T04:39:45.425Z,0.00
2023-01-20T04:41:45.157Z,0.00
2023-01-20T04:42:45.253Z,0.00
2023-01-20T04:43:45.377Z,0.00
2023-01-20T04:44:45.404Z,0.00
2023-01-20T04:46:45.385Z,0.00
2023-01-20T04:47:45.365Z,0.00
2023-01-20T04:48:45.388Z,0.00
2023-01-20T04:49:45.158Z,0.00
2023-01-20T04:51:45.379Z,0.00
2023-01-20T04:52:45.202Z,0.00
2023-01-20T04:53:45.225Z,0.00
2023-01-20T04:54:45.389Z,0.00
2023-01-20T04:56:45.398Z,0.00
2023-01-20T04:57:45.368Z,0.00
2023-01-20T04:58:45.387Z,0.00
2023-01-20T04:59:45.413Z,0.00
2023-01-20T05:01:45.320Z,0.00
2023-01-20T05:02:45.419Z,0.00
2023-01-20T05:03:45.399Z,0.00
2023-01-20T05:04:45.447Z,0.00
2023-01-20T05:07:45.390Z,0.00
2023-01-20T05:08:45.160Z,0.00
2023-01-20T05:09:45.403Z,0.00
2023-01-20T05:10:45.202Z,0.00
2023-01-20T05:13:45.195Z,0.00
2023-01-20T05:14:45.409Z,0.00
2023-01-20T05:15:45.230Z,0.00
2023-01-20T05:18:45.418Z,0.00
2023-01-20T05:19:45.205Z,0.00
2023-01-20T05:20:45.404Z,0.00
2023-01-20T05:21:45.209Z,0.00
2023-01-20T05:24:45.401Z,0.00
2023-01-20T05:25:45.261Z,0.00
2023-01-20T05:26:45.426Z,0.00
2023-01-20T05:29:45.399Z,0.00
2023-01-20T05:30:45.519Z,0.00
2023-01-20T05:31:45.498Z,0.00
2023-01-20T05:32:45.398Z,0.00
2023-01-20T05:34:45.433Z,0.00
2023-01-20T05:35:45.429Z,0.00
2023-01-20T05:36:45.245Z,0.00
2023-01-20T05:37:45.390Z,0.00
2023-01-20T05:39:45.413Z,0.01
2023-01-20T05:40:45.397Z,0.00
2023-01-20T05:41:45.414Z,0.00
2023-01-20T05:42:45.423Z,0.00
2023-01-20T05:45:45.397Z,0.00
2023-01-20T05:46:45.490Z,0.00
2023-01-20T05:47:45.410Z,0.00
2023-01-20T05:50:45.413Z,0.00
2023-01-20T05:51:45.410Z,0.00
2023-01-20T05:52:45.952Z,0.00
2023-01-20T05:55:45.424Z,0.00
2023-01-20T05:56:45.447Z,0.00
2023-01-20T05:57:45.416Z,0.00
2023-01-20T06:00:45.428Z,0.00
2023-01-20T06:01:45.447Z,0.00
2023-01-20T06:02:45.426Z,0.00
2023-01-20T06:04:45.434Z,0.00
2023-01-20T06:05:45.451Z,0.00
2023-01-20T06:06:45.481Z,0.00
2023-01-20T06:07:45.440Z,0.00
2023-01-20T06:09:45.452Z,0.00
2023-01-20T06:10:45.429Z,0.00
2023-01-20T06:11:45.419Z,0.00
2023-01-20T06:12:45.313Z,0.00
2023-01-20T06:14:45.477Z,0.00
2023-01-20T06:15:45.466Z,0.00
2023-01-20T06:16:45.458Z,0.00
2023-01-20T06:17:45.476Z,0.00
2023-01-20T06:19:45.468Z,0.00
2023-01-20T06:20:45.437Z,0.00
2023-01-20T06:21:46.905Z,0.00
2023-01-20T06:22:45.464Z,0.00
2023-01-20T06:25:45.451Z,0.00
2023-01-20T06:26:45.460Z,0.00
2023-01-20T06:27:45.448Z,0.00
2023-01-20T06:28:45.453Z,0.00
2023-01-20T06:31:45.522Z,0.00
2023-01-20T06:32:45.446Z,0.00
2023-01-20T06:33:45.250Z,0.00
2023-01-20T06:34:45.467Z,0.00
2023-01-20T06:36:45.531Z,0.00
2023-01-20T06:37:45.455Z,0.00
2023-01-20T06:38:45.517Z,0.00
2023-01-20T06:39:45.320Z,0.00
2023-01-20T06:42:45.477Z,0.00
2023-01-20T06:43:45.341Z,0.00
2023-01-20T06:44:45.254Z,0.00
2023-01-20T06:47:45.247Z,0.00
2023-01-20T06:48:45.262Z,0.00
2023-01-20T06:49:45.490Z,0.00
2023-01-20T06:50:45.296Z,0.00
2023-01-20T06:53:54.300Z,0.00
2023-01-20T06:54:45.299Z,0.00
2023-01-20T06:55:45.350Z,0.00
2023-01-20T06:56:45.493Z,0.00
2023-01-20T06:58:45.318Z,0.00
2023-01-20T06:59:45.330Z,0.00
2023-01-20T07:00:45.503Z,0.00
2023-01-20T07:01:45.632Z,0.00
2023-01-20T07:03:45.502Z,0.00
2023-01-20T07:04:45.489Z,0.00
2023-01-20T07:05:45.479Z,0.00
2023-01-20T07:06:45.476Z,0.00
2023-01-20T07:09:45.500Z,0.00
2023-01-20T07:10:45.491Z,0.00
2023-01-20T07:11:45.472Z,0.00
2023-01-20T07:12:45.465Z,0.00
2023-01-20T07:14:45.536Z,0.00
2023-01-20T07:15:45.512Z,0.00
2023-01-20T07:16:45.334Z,0.00
2023-01-20T07:17:45.474Z,0.00
2023-01-20T07:20:45.515Z,0.00
2023-01-20T07:21:45.502Z,0.00
2023-01-20T07:22:45.381Z,0.00
2023-01-20T07:23:45.523Z,0.00
2023-01-20T07:26:45.526Z,0.00
2023-01-20T07:27:45.350Z,0.00
2023-01-20T07:28:45.366Z,0.00
2023-01-20T07:29:45.324Z,0.00
2023-01-20T07:31:45.513Z,0.00
2023-01-20T07:32:45.493Z,0.00
2023-01-20T07:33:45.477Z,0.00
2023-01-20T07:34:45.345Z,0.00
2023-01-20T07:36:45.315Z,0.00
2023-01-20T07:37:45.530Z,0.00
2023-01-20T07:38:45.516Z,0.00
2023-01-20T07:39:45.326Z,0.00
2023-01-20T07:42:45.325Z,0.00
2023-01-20T07:43:45.523Z,0.00
2023-01-20T07:44:45.534Z,0.00
2023-01-20T07:46:45.544Z,0.00
2023-01-20T07:47:45.539Z,0.00
2023-01-20T07:48:45.501Z,0.00
2023-01-20T07:49:45.336Z,0.00
2023-01-20T07:51:45.529Z,0.00
2023-01-20T07:52:45.539Z,0.00
2023-01-20T07:53:45.561Z,0.00
2023-01-20T07:54:45.361Z,0.00
2023-01-20T07:56:45.490Z,0.00
2023-01-20T07:57:45.509Z,0.00
2023-01-20T07:58:45.509Z,0.00
2023-01-20T07:59:45.514Z,0.00
2023-01-20T08:01:45.408Z,0.00
2023-01-20T08:02:45.319Z,0.00
2023-01-20T08:03:45.551Z,0.00
2023-01-20T08:04:45.543Z,0.00
2023-01-20T08:06:45.371Z,0.00
2023-01-20T08:07:45.386Z,0.00
2023-01-20T08:08:45.554Z,0.00
2023-01-20T08:09:45.550Z,0.00
2023-01-20T08:11:45.518Z,0.00
2023-01-20T08:12:45.526Z,0.00
2023-01-20T08:13:45.533Z,0.00
2023-01-20T08:14:45.553Z,0.00
2023-01-20T08:16:45.577Z,0.00
2023-01-20T08:17:45.362Z,0.00
2023-01-20T08:18:45.581Z,0.00
2023-01-20T08:19:45.348Z,0.00
2023-01-20T08:22:45.566Z,0.00
2023-01-20T08:23:45.353Z,0.00
2023-01-20T08:24:45.567Z,0.00
2023-01-20T08:25:45.557Z,0.00
2023-01-20T08:28:45.542Z,0.00
2023-01-20T08:29:45.357Z,0.00
2023-01-20T08:30:45.686Z,0.00
2023-01-20T08:31:45.453Z,0.00
2023-01-20T08:34:45.574Z,0.63
2023-01-20T08:35:45.570Z,0.36
2023-01-20T08:36:45.577Z,0.00
2023-01-20T08:37:47.195Z,0.00
2023-01-20T08:40:45.563Z,0.00
2023-01-20T08:41:45.580Z,0.00
2023-01-20T08:42:45.574Z,0.00
2023-01-20T08:43:45.591Z,0.00
2023-01-20T08:45:45.570Z,0.00
2023-01-20T08:46:45.594Z,0.00
2023-01-20T08:47:45.563Z,0.00
2023-01-20T08:48:45.584Z,0.00
2023-01-20T08:50:45.453Z,0.00
2023-01-20T08:51:45.628Z,0.00
2023-01-20T08:52:45.559Z,0.00
2023-01-20T08:53:45.345Z,0.00
2023-01-20T08:55:45.566Z,0.00
2023-01-20T08:56:45.588Z,0.00
2023-01-20T08:57:45.595Z,0.00
2023-01-20T08:58:45.605Z,0.00
2023-01-20T09:01:45.434Z,0.00
2023-01-20T09:02:45.614Z,0.00
2023-01-20T09:03:59.267Z,0.00
2023-01-20T09:04:45.409Z,0.00
2023-01-20T09:07:45.571Z,0.00
2023-01-20T09:08:45.649Z,0.00
2023-01-20T09:09:45.535Z,0.01
2023-01-20T09:10:45.574Z,0.00
2023-01-20T09:12:45.573Z,0.00
2023-01-20T09:13:45.604Z,0.00
2023-01-20T09:14:45.583Z,0.06
2023-01-20T09:15:45.632Z,0.00
2023-01-20T09:17:45.443Z,0.00
2023-01-20T09:18:45.379Z,0.00
2023-01-20T09:19:45.623Z,0.00
2023-01-20T09:20:45.628Z,0.00
2023-01-20T09:22:45.615Z,0.00
2023-01-20T09:23:45.624Z,0.00
2023-01-20T09:24:45.584Z,0.00
2023-01-20T09:25:45.618Z,0.00
2023-01-20T09:28:45.606Z,0.00
2023-01-20T09:29:45.633Z,0.00
2023-01-20T09:30:45.704Z,0.00
2023-01-20T09:31:45.560Z,0.00
2023-01-20T09:33:45.385Z,0.00
2023-01-20T09:34:45.692Z,0.00
2023-01-20T09:35:45.412Z,0.00
2023-01-20T09:36:45.453Z,0.00
2023-01-20T09:38:45.647Z,0.24
2023-01-20T09:39:45.608Z,0.62
2023-01-20T09:40:45.536Z,0.61
2023-01-20T09:41:45.626Z,0.09
2023-01-20T09:43:45.623Z,0.21
2023-01-20T09:44:45.675Z,0.40
2023-01-20T09:45:45.798Z,0.08
2023-01-20T09:46:45.840Z,0.22
2023-01-20T09:48:45.440Z,0.26
2023-01-20T09:49:45.709Z,0.07
2023-01-20T09:50:45.441Z,0.02
2023-01-20T09:51:45.630Z,0.02
2023-01-20T09:53:45.441Z,0.00
2023-01-20T09:54:45.607Z,0.15
2023-01-20T09:55:45.594Z,0.48
2023-01-20T09:56:45.581Z,0.36
2023-01-20T09:58:45.410Z,0.00
2023-01-20T09:59:45.633Z,0.00
2023-01-20T10:00:45.675Z,0.00
2023-01-20T10:01:45.705Z,0.03
2023-01-20T10:03:45.693Z,0.00
2023-01-20T10:04:45.479Z,0.00
2023-01-20T10:05:45.711Z,0.00
2023-01-20T10:06:45.505Z,0.00
2023-01-20T10:08:55.930Z,0.00
2023-01-20T10:09:45.518Z,0.00
2023-01-20T10:10:45.660Z,0.00
2023-01-20T10:11:45.632Z,0.00
2023-01-20T10:13:45.639Z,0.00
2023-01-20T10:14:45.621Z,0.01
2023-01-20T10:15:45.758Z,0.23
2023-01-20T10:16:45.643Z,0.01
2023-01-20T10:18:45.503Z,0.01
2023-01-20T10:19:45.502Z,0.00
2023-01-20T10:20:45.479Z,0.00
2023-01-20T10:21:45.651Z,0.00
2023-01-20T10:24:45.636Z,0.00
2023-01-20T10:25:45.648Z,0.28
2023-01-20T10:26:45.728Z,0.12
2023-01-20T10:28:45.649Z,0.19
2023-01-20T10:29:45.664Z,0.02
2023-01-20T10:30:47.159Z,0.16
2023-01-20T10:31:45.809Z,0.02
2023-01-20T10:33:45.662Z,0.00
2023-01-20T10:34:45.567Z,0.00
2023-01-20T10:35:45.677Z,0.00
2023-01-20T10:36:45.661Z,0.00
2023-01-20T10:38:45.714Z,0.18
2023-01-20T10:39:45.658Z,0.00
2023-01-20T10:40:45.710Z,0.00
2023-01-20T10:41:45.723Z,0.00
2023-01-20T10:44:45.501Z,0.00
2023-01-20T10:45:45.676Z,0.00
2023-01-20T10:46:45.702Z,0.00
2023-01-20T10:47:45.716Z,0.00
2023-01-20T10:49:45.473Z,0.00
2023-01-20T10:50:45.711Z,0.00
2023-01-20T10:51:45.712Z,0.00
2023-01-20T10:52:45.569Z,0.00
2023-01-20T10:54:45.737Z,0.00
2023-01-20T10:55:45.646Z,0.02
2023-01-20T10:56:45.478Z,0.00
2023-01-20T10:57:45.701Z,0.00
2023-01-20T10:59:45.460Z,0.00
2023-01-20T11:00:45.478Z,0.00
2023-01-20T11:01:45.748Z,0.00
2023-01-20T11:02:45.744Z,0.00
2023-01-20T11:04:45.692Z,0.00
2023-01-20T11:05:45.681Z,0.00
2023-01-20T11:06:45.688Z,0.00
2023-01-20T11:07:45.521Z,0.01
2023-01-20T11:10:45.682Z,0.00
2023-01-20T11:11:45.524Z,0.00
2023-01-20T11:12:45.692Z,0.00
2023-01-20T11:14:45.620Z,0.91
2023-01-20T11:15:45.756Z,0.59
2023-01-20T11:16:45.530Z,0.00
2023-01-20T11:17:45.735Z,0.00
2023-01-20T11:19:45.532Z,0.32
2023-01-20T11:20:45.678Z,0.47
2023-01-20T11:21:45.698Z,0.54
2023-01-20T11:22:45.480Z,0.00
2023-01-20T11:25:45.717Z,0.01
2023-01-20T11:26:45.690Z,0.05
2023-01-20T11:27:45.729Z,0.00
2023-01-20T11:30:45.818Z,0.02
2023-01-20T11:31:45.764Z,0.12
2023-01-20T11:32:45.738Z,0.00
2023-01-20T11:35:45.761Z,0.52
2023-01-20T11:36:46.317Z,0.15
2023-01-20T11:37:45.726Z,0.00
2023-01-20T11:38:45.511Z,0.72
2023-01-20T11:41:45.713Z,0.27
2023-01-20T11:42:45.557Z,0.01
2023-01-20T11:43:45.633Z,0.00
2023-01-20T11:45:45.565Z,0.03
2023-01-20T11:46:45.713Z,0.64
2023-01-20T11:47:45.753Z,1.04
2023-01-20T11:48:45.743Z,0.20
2023-01-20T11:51:45.617Z,0.77
2023-01-20T11:52:45.575Z,0.99
2023-01-20T11:53:45.751Z,0.71
2023-01-20T11:54:45.705Z,0.38
2023-01-20T11:56:45.735Z,0.06
2023-01-20T11:57:45.523Z,0.00
2023-01-20T11:58:45.758Z,0.60
2023-01-20T11:59:45.765Z,0.79
2023-01-20T12:01:45.551Z,0.06
2023-01-20T12:02:45.514Z,0.00
2023-01-20T12:03:45.607Z,0.00
2023-01-20T12:04:45.756Z,0.00
2023-01-20T12:06:45.770Z,0.00
2023-01-20T12:07:45.742Z,0.00
2023-01-20T12:08:45.718Z,0.00
2023-01-20T12:09:45.759Z,0.00
2023-01-20T12:12:45.555Z,0.02
2023-01-20T12:13:45.826Z,0.00
2023-01-20T12:14:45.730Z,0.21
2023-01-20T12:17:45.730Z,0.00
2023-01-20T12:19:00.892Z,0.00
2023-01-20T12:19:45.764Z,0.00
2023-01-20T12:21:45.648Z,0.66
2023-01-20T12:22:45.731Z,0.80
2023-01-20T12:23:46.037Z,0.34
2023-01-20T12:24:46.156Z,0.02
2023-01-20T12:26:45.610Z,0.00
2023-01-20T12:27:45.790Z,0.30
2023-01-20T12:28:45.778Z,0.41
2023-01-20T12:29:45.760Z,0.76
2023-01-20T12:31:45.807Z,1.06
2023-01-20T12:32:45.791Z,1.22
2023-01-20T12:33:45.651Z,1.45
2023-01-20T12:34:45.788Z,1.44
2023-01-20T12:36:45.625Z,1.28
2023-01-20T12:37:45.795Z,0.79
2023-01-20T12:38:45.811Z,0.79
2023-01-20T12:39:45.606Z,1.03
2023-01-20T12:41:45.799Z,0.91
2023-01-20T12:42:45.762Z,1.07
2023-01-20T12:43:45.763Z,0.52
2023-01-20T12:44:45.759Z,0.45
2023-01-20T12:47:45.789Z,0.00
2023-01-20T12:48:45.788Z,0.03
2023-01-20T12:49:45.770Z,0.60
2023-01-20T12:50:45.785Z,0.54
2023-01-20T12:52:45.817Z,0.91
2023-01-20T12:53:45.639Z,1.25
2023-01-20T12:54:48.696Z,1.67
2023-01-20T12:55:45.791Z,0.30
2023-01-20T12:57:45.788Z,0.47
2023-01-20T12:58:45.654Z,0.92
2023-01-20T12:59:45.781Z,1.09
2023-01-20T13:00:45.676Z,1.15
2023-01-20T13:03:45.603Z,0.70
2023-01-20T13:04:45.657Z,1.26
2023-01-20T13:05:45.820Z,1.24
2023-01-20T13:06:45.928Z,1.38
2023-01-20T13:08:45.812Z,1.21
2023-01-20T13:09:45.619Z,0.89
2023-01-20T13:10:49.474Z,1.12
2023-01-20T13:11:45.846Z,0.85
2023-01-20T13:13:56.724Z,0.43
2023-01-20T13:14:45.629Z,0.94
2023-01-20T13:15:45.534Z,0.76
2023-01-20T13:16:45.789Z,0.92
2023-01-20T13:18:45.852Z,0.37
2023-01-20T13:19:45.784Z,0.30
2023-01-20T13:20:45.823Z,1.02
2023-01-20T13:21:48.236Z,1.03
2023-01-20T13:23:45.780Z,1.01
2023-01-20T13:24:45.792Z,1.10
2023-01-20T13:25:45.788Z,0.22
2023-01-20T13:26:45.811Z,0.14
2023-01-20T13:28:45.813Z,0.63
2023-01-20T13:29:45.735Z,0.49
2023-01-20T13:30:45.615Z,0.18
2023-01-20T13:31:45.770Z,0.53
2023-01-20T13:33:45.826Z,1.32
2023-01-20T13:34:45.810Z,0.66
2023-01-20T13:35:45.818Z,0.00
2023-01-20T13:36:45.611Z,0.38
2023-01-20T13:39:45.834Z,0.87
2023-01-20T13:40:45.844Z,0.59
2023-01-20T13:41:45.880Z,0.00
2023-01-20T13:42:45.817Z,0.00
2023-01-20T13:44:45.870Z,0.00
2023-01-20T13:45:45.927Z,0.00
2023-01-20T13:46:45.712Z,0.55
2023-01-20T13:47:45.894Z,0.65
2023-01-20T13:49:45.830Z,0.14
2023-01-20T13:50:45.814Z,0.00
2023-01-20T13:51:45.822Z,0.00
2023-01-20T13:52:45.851Z,0.29
2023-01-20T13:55:45.658Z,0.10
2023-01-20T13:56:45.835Z,0.13
2023-01-20T13:57:45.836Z,0.04
2023-01-20T13:58:45.621Z,0.12
2023-01-20T14:00:45.713Z,0.00
2023-01-20T14:01:45.689Z,0.00
2023-01-20T14:02:45.889Z,0.20
2023-01-20T14:03:45.824Z,0.33
2023-01-20T14:05:45.902Z,0.89
2023-01-20T14:06:45.944Z,0.05
2023-01-20T14:07:45.829Z,0.00
2023-01-20T14:08:45.710Z,0.99
2023-01-20T14:10:45.853Z,0.12
2023-01-20T14:11:45.816Z,1.14
2023-01-20T14:12:45.840Z,0.68
2023-01-20T14:13:45.911Z,0.05
2023-01-20T14:16:45.879Z,0.01
2023-01-20T14:17:45.858Z,0.00
2023-01-20T14:18:45.851Z,0.17
2023-01-20T14:21:45.898Z,0.69
2023-01-20T14:22:45.791Z,0.00
2023-01-20T14:23:45.704Z,0.01
2023-01-20T14:24:45.851Z,0.02
2023-01-20T14:26:45.907Z,0.96
2023-01-20T14:27:45.878Z,0.43
2023-01-20T14:28:45.646Z,0.79
2023-01-20T14:29:45.865Z,0.77
2023-01-20T14:31:46.310Z,0.00
2023-01-20T14:32:45.767Z,0.10
2023-01-20T14:33:45.924Z,0.66
2023-01-20T14:34:45.876Z,0.79
2023-01-20T14:36:45.910Z,1.42
2023-01-20T14:37:45.877Z,0.87
2023-01-20T14:38:56.938Z,0.21
2023-01-20T14:39:45.875Z,0.00
2023-01-20T14:41:45.629Z,0.31
2023-01-20T14:42:45.865Z,0.56
2023-01-20T14:43:45.873Z,0.37
2023-01-20T14:44:45.942Z,0.74
2023-01-20T14:46:45.606Z,0.04
2023-01-20T14:47:45.943Z,0.42
2023-01-20T14:48:45.890Z,0.35
2023-01-20T14:49:45.727Z,0.57
2023-01-20T14:52:45.748Z,1.09
2023-01-20T14:53:45.886Z,0.90
2023-01-20T14:54:45.775Z,0.18
2023-01-20T14:57:45.976Z,0.94
2023-01-20T14:58:45.898Z,0.78
2023-01-20T14:59:45.876Z,0.38
2023-01-20T15:00:45.931Z,0.72
2023-01-20T15:02:45.925Z,0.53
2023-01-20T15:03:45.909Z,0.28
2023-01-20T15:04:45.726Z,1.19
2023-01-20T15:05:45.910Z,0.54
2023-01-20T15:07:45.965Z,1.04
2023-01-20T15:08:56.777Z,0.67
2023-01-20T15:09:45.667Z,0.48
2023-01-20T15:10:45.922Z,0.58
2023-01-20T15:13:45.689Z,0.00
2023-01-20T15:14:45.926Z,0.00
2023-01-20T15:15:45.998Z,0.00
2023-01-20T15:17:45.913Z,0.00
2023-01-20T15:18:45.852Z,0.00
2023-01-20T15:19:45.909Z,0.00
2023-01-20T15:20:45.914Z,0.00
2023-01-20T15:23:45.979Z,0.00
2023-01-20T15:24:45.918Z,0.00
2023-01-20T15:25:45.938Z,0.00
2023-01-20T15:26:45.902Z,0.00
2023-01-20T15:28:45.719Z,0.18
2023-01-20T15:29:45.963Z,0.05
2023-01-20T15:30:45.760Z,0.51
2023-01-20T15:31:45.903Z,0.00
2023-01-20T15:33:45.937Z,0.78
2023-01-20T15:34:45.955Z,0.02
2023-01-20T15:35:45.911Z,0.03
2023-01-20T15:36:45.963Z,0.18
2023-01-20T15:39:45.772Z,0.36
2023-01-20T15:40:45.903Z,0.12
2023-01-20T15:41:45.965Z,0.00
2023-01-20T15:42:45.915Z,0.01
2023-01-20T15:44:45.993Z,0.01
2023-01-20T15:45:45.969Z,0.34
2023-01-20T15:46:45.942Z,0.18
2023-01-20T15:47:45.873Z,0.11
2023-01-20T15:49:45.926Z,0.02
2023-01-20T15:50:45.737Z,0.03
2023-01-20T15:51:45.969Z,0.56
2023-01-20T15:52:45.946Z,0.12
2023-01-20T15:54:45.945Z,0.47
2023-01-20T15:55:45.945Z,0.04
2023-01-20T15:56:45.801Z,0.00
2023-01-20T15:57:45.978Z,0.18
2023-01-20T16:00:45.932Z,0.30
2023-01-20T16:01:46.018Z,0.42
2023-01-20T16:02:46.043Z,0.16
2023-01-20T16:05:45.777Z,1.30
2023-01-20T16:06:45.960Z,0.80
2023-01-20T16:07:45.960Z,0.30
2023-01-20T16:09:45.979Z,0.36
2023-01-20T16:10:45.956Z,0.01
2023-01-20T16:11:45.962Z,0.56
2023-01-20T16:12:45.986Z,0.74
2023-01-20T16:14:45.977Z,0.85
2023-01-20T16:15:45.975Z,0.38
2023-01-20T16:16:46.036Z,0.45
2023-01-20T16:17:45.953Z,0.00
2023-01-20T16:20:45.955Z,0.59
2023-01-20T16:21:45.978Z,0.62
2023-01-20T16:25:45.947Z,0.59
2023-01-20T16:26:45.754Z,0.97
2023-01-20T16:27:45.978Z,1.22
2023-01-20T16:29:45.981Z,0.44
2023-01-20T16:30:46.098Z,0.22
2023-01-20T16:31:46.037Z,0.00
2023-01-20T16:32:45.983Z,0.81
2023-01-20T16:34:45.850Z,1.06
2023-01-20T16:35:46.023Z,0.67
2023-01-20T16:36:45.965Z,0.03
2023-01-20T16:37:46.045Z,0.43
2023-01-20T16:40:45.980Z,0.52
2023-01-20T16:41:45.999Z,1.06
2023-01-20T16:42:46.007Z,0.99
2023-01-20T16:43:45.987Z,0.50
2023-01-20T16:46:45.989Z,0.37
2023-01-20T16:47:45.756Z,0.03
2023-01-20T16:48:46.028Z,0.03
2023-01-20T16:50:46.034Z,0.16
2023-01-20T16:51:45.982Z,0.14
2023-01-20T16:52:45.967Z,0.43
2023-01-20T16:53:45.972Z,0.01
2023-01-20T16:55:45.952Z,0.42
2023-01-20T16:56:45.993Z,0.49
2023-01-20T16:57:46.000Z,0.65
2023-01-20T16:58:46.000Z,0.00
2023-01-20T17:01:45.799Z,0.60
2023-01-20T17:02:46.008Z,0.98
2023-01-20T17:03:46.069Z,0.67
2023-01-20T17:04:45.809Z,0.49
2023-01-20T17:07:45.914Z,0.11
2023-01-20T17:08:46.024Z,0.09
2023-01-20T17:09:45.997Z,1.31
2023-01-20T17:10:46.049Z,0.54
2023-01-20T17:12:48.748Z,0.66
2023-01-20T17:13:46.039Z,0.31
2023-01-20T17:14:46.021Z,0.00
2023-01-20T17:15:45.994Z,0.30
2023-01-20T17:17:46.009Z,0.03
2023-01-20T17:18:45.995Z,0.86
2023-01-20T17:19:46.042Z,0.48
2023-01-20T17:20:46.020Z,0.25
2023-01-20T17:23:46.021Z,0.03
2023-01-20T17:24:46.046Z,0.01
2023-01-20T17:25:45.862Z,0.28
2023-01-20T17:26:45.998Z,0.25
2023-01-20T17:28:46.039Z,0.52
2023-01-20T17:29:45.971Z,0.66
2023-01-20T17:30:46.161Z,0.02
2023-01-20T17:31:46.091Z,0.56
2023-01-20T17:34:46.037Z,0.32
2023-01-20T17:35:47.223Z,0.83
2023-01-20T17:36:46.050Z,0.36
2023-01-20T17:38:46.038Z,0.01
2023-01-20T17:39:46.072Z,0.04
2023-01-20T17:40:46.045Z,0.00
2023-01-20T17:41:46.053Z,0.00
2023-01-20T17:43:46.054Z,0.24
2023-01-20T17:44:46.045Z,0.00
2023-01-20T17:45:46.120Z,0.00
2023-01-20T17:46:46.082Z,0.00
2023-01-20T17:48:46.085Z,0.94
2023-01-20T17:49:46.036Z,0.01
2023-01-20T17:50:46.041Z,0.06
2023-01-20T17:51:46.036Z,0.00
2023-01-20T17:54:46.047Z,0.00
2023-01-20T17:55:46.045Z,0.00
2023-01-20T17:56:46.057Z,0.00
2023-01-20T17:57:46.041Z,0.01
2023-01-20T17:59:46.053Z,0.00
2023-01-20T18:00:46.067Z,0.00